sensor_id;sensor_type;location;lat;lon;timestamp;P1;durP1;ratioP1;P2;durP2;ratioP2
42146;SDS011;27815;43.410;11.852;2023-06-19T00:02:48;4.70;;;3.22;;
42146;SDS011;27815;43.410;11.852;2023-06-19T00:06:52;5.95;;;3.65;;
42146;SDS011;27815;43.410;11.852;2023-06-19T00:10:56;5.05;;;3.35;;
42146;SDS011;27815;43.410;11.852;2023-06-19T00:14:59;5.35;;;3.28;;
42146;SDS011;27815;43.410;11.852;2023-06-19T00:19:02;4.75;;;3.10;;
42146;SDS011;27815;43.410;11.852;2023-06-19T00:23:05;4.50;;;3.22;;
42146;SDS011;27815;43.410;11.852;2023-06-19T00:27:13;5.32;;;3.58;;
42146;SDS011;27815;43.410;11.852;2023-06-19T00:31:16;5.97;;;3.65;;
42146;SDS011;27815;43.410;11.852;2023-06-19T00:35:19;5.28;;;3.53;;
42146;SDS011;27815;43.410;11.852;2023-06-19T00:39:24;5.55;;;4.00;;
42146;SDS011;27815;43.410;11.852;2023-06-19T00:43:27;6.18;;;3.72;;
42146;SDS011;27815;43.410;11.852;2023-06-19T00:47:31;5.63;;;3.38;;
42146;SDS011;27815;43.410;11.852;2023-06-19T00:51:36;5.45;;;3.67;;
42146;SDS011;27815;43.410;11.852;2023-06-19T00:55:40;5.75;;;3.88;;
42146;SDS011;27815;43.410;11.852;2023-06-19T00:59:45;5.43;;;3.28;;
42146;SDS011;27815;43.410;11.852;2023-06-19T01:03:48;5.90;;;3.88;;
42146;SDS011;27815;43.410;11.852;2023-06-19T01:12:04;7.00;;;4.28;;
42146;SDS011;27815;43.410;11.852;2023-06-19T01:16:13;7.22;;;4.22;;
42146;SDS011;27815;43.410;11.852;2023-06-19T01:20:18;5.70;;;4.15;;
42146;SDS011;27815;43.410;11.852;2023-06-19T01:24:24;6.00;;;4.27;;
42146;SDS011;27815;43.410;11.852;2023-06-19T01:28:27;6.03;;;4.40;;
42146;SDS011;27815;43.410;11.852;2023-06-19T01:37:16;5.70;;;4.53;;
42146;SDS011;27815;43.410;11.852;2023-06-19T01:41:19;7.38;;;4.43;;
42146;SDS011;27815;43.410;11.852;2023-06-19T01:45:25;6.78;;;4.00;;
42146;SDS011;27815;43.410;11.852;2023-06-19T01:49:28;6.30;;;4.15;;
42146;SDS011;27815;43.410;11.852;2023-06-19T01:53:31;9.20;;;4.43;;
42146;SDS011;27815;43.410;11.852;2023-06-19T01:57:34;7.63;;;5.03;;
42146;SDS011;27815;43.410;11.852;2023-06-19T02:01:38;5.75;;;4.63;;
42146;SDS011;27815;43.410;11.852;2023-06-19T02:05:42;7.72;;;5.10;;
42146;SDS011;27815;43.410;11.852;2023-06-19T02:09:45;8.02;;;4.88;;
42146;SDS011;27815;43.410;11.852;2023-06-19T02:13:47;6.63;;;4.88;;
42146;SDS011;27815;43.410;11.852;2023-06-19T02:17:50;5.78;;;4.43;;
42146;SDS011;27815;43.410;11.852;2023-06-19T02:26:00;7.15;;;3.80;;
42146;SDS011;27815;43.410;11.852;2023-06-19T02:30:04;5.47;;;3.85;;
42146;SDS011;27815;43.410;11.852;2023-06-19T02:34:08;9.05;;;3.78;;
42146;SDS011;27815;43.410;11.852;2023-06-19T02:38:14;6.68;;;4.72;;
42146;SDS011;27815;43.410;11.852;2023-06-19T02:42:17;4.93;;;3.70;;
42146;SDS011;27815;43.410;11.852;2023-06-19T02:46:20;6.40;;;4.13;;
42146;SDS011;27815;43.410;11.852;2023-06-19T02:50:23;6.85;;;4.35;;
42146;SDS011;27815;43.410;11.852;2023-06-19T02:54:26;7.47;;;4.07;;
42146;SDS011;27815;43.410;11.852;2023-06-19T02:58:30;6.40;;;3.80;;
42146;SDS011;27815;43.410;11.852;2023-06-19T03:02:33;5.43;;;3.97;;
42146;SDS011;27815;43.410;11.852;2023-06-19T03:06:36;6.25;;;4.10;;
42146;SDS011;27815;43.410;11.852;2023-06-19T03:10:42;5.85;;;4.05;;
42146;SDS011;27815;43.410;11.852;2023-06-19T03:14:46;6.45;;;3.78;;
42146;SDS011;27815;43.410;11.852;2023-06-19T03:18:49;5.90;;;4.05;;
42146;SDS011;27815;43.410;11.852;2023-06-19T03:22:56;5.72;;;3.83;;
42146;SDS011;27815;43.410;11.852;2023-06-19T03:27:00;6.15;;;4.40;;
42146;SDS011;27815;43.410;11.852;2023-06-19T03:31:03;6.90;;;3.95;;
42146;SDS011;27815;43.410;11.852;2023-06-19T03:35:07;6.53;;;4.15;;
42146;SDS011;27815;43.410;11.852;2023-06-19T03:39:15;7.32;;;4.15;;
42146;SDS011;27815;43.410;11.852;2023-06-19T03:43:18;7.45;;;4.40;;
42146;SDS011;27815;43.410;11.852;2023-06-19T03:47:22;5.95;;;4.30;;
42146;SDS011;27815;43.410;11.852;2023-06-19T03:51:25;6.65;;;4.32;;
42146;SDS011;27815;43.410;11.852;2023-06-19T03:55:28;7.63;;;4.93;;
42146;SDS011;27815;43.410;11.852;2023-06-19T03:59:31;7.40;;;5.78;;
42146;SDS011;27815;43.410;11.852;2023-06-19T04:03:34;8.82;;;5.13;;
42146;SDS011;27815;43.410;11.852;2023-06-19T04:07:37;7.18;;;4.68;;
42146;SDS011;27815;43.410;11.852;2023-06-19T04:11:40;5.78;;;4.10;;
42146;SDS011;27815;43.410;11.852;2023-06-19T04:15:43;7.80;;;4.60;;
42146;SDS011;27815;43.410;11.852;2023-06-19T04:19:49;7.07;;;4.37;;
42146;SDS011;27815;43.410;11.852;2023-06-19T04:23:54;6.97;;;4.28;;
42146;SDS011;27815;43.410;11.852;2023-06-19T04:27:57;7.03;;;4.93;;
42146;SDS011;27815;43.410;11.852;2023-06-19T04:32:01;7.28;;;5.15;;
42146;SDS011;27815;43.410;11.852;2023-06-19T04:36:05;6.00;;;4.25;;
42146;SDS011;27815;43.410;11.852;2023-06-19T04:40:08;5.28;;;4.35;;
42146;SDS011;27815;43.410;11.852;2023-06-19T04:44:13;10.82;;;6.32;;
42146;SDS011;27815;43.410;11.852;2023-06-19T04:48:16;9.48;;;6.75;;
42146;SDS011;27815;43.410;11.852;2023-06-19T04:52:21;11.05;;;8.15;;
42146;SDS011;27815;43.410;11.852;2023-06-19T04:56:25;8.77;;;6.40;;
42146;SDS011;27815;43.410;11.852;2023-06-19T05:00:28;10.68;;;7.38;;
42146;SDS011;27815;43.410;11.852;2023-06-19T05:04:32;16.05;;;10.40;;
42146;SDS011;27815;43.410;11.852;2023-06-19T05:08:36;15.25;;;10.60;;
42146;SDS011;27815;43.410;11.852;2023-06-19T05:12:40;14.68;;;10.43;;
42146;SDS011;27815;43.410;11.852;2023-06-19T05:16:43;24.10;;;12.18;;
42146;SDS011;27815;43.410;11.852;2023-06-19T05:20:46;19.65;;;12.85;;
42146;SDS011;27815;43.410;11.852;2023-06-19T05:24:49;17.83;;;13.77;;
42146;SDS011;27815;43.410;11.852;2023-06-19T05:28:52;12.65;;;9.93;;
42146;SDS011;27815;43.410;11.852;2023-06-19T05:32:58;10.30;;;9.07;;
42146;SDS011;27815;43.410;11.852;2023-06-19T05:37:01;15.68;;;13.00;;
42146;SDS011;27815;43.410;11.852;2023-06-19T05:41:05;14.10;;;11.70;;
42146;SDS011;27815;43.410;11.852;2023-06-19T05:45:10;12.43;;;11.10;;
42146;SDS011;27815;43.410;11.852;2023-06-19T05:49:13;9.85;;;8.60;;
42146;SDS011;27815;43.410;11.852;2023-06-19T05:53:16;11.98;;;9.35;;
42146;SDS011;27815;43.410;11.852;2023-06-19T05:57:19;10.18;;;9.18;;
42146;SDS011;27815;43.410;11.852;2023-06-19T06:01:25;11.10;;;9.60;;
42146;SDS011;27815;43.410;11.852;2023-06-19T06:05:30;10.63;;;9.55;;
42146;SDS011;27815;43.410;11.852;2023-06-19T06:09:33;9.88;;;8.90;;
42146;SDS011;27815;43.410;11.852;2023-06-19T06:13:36;19.52;;;14.05;;
42146;SDS011;27815;43.410;11.852;2023-06-19T06:17:39;12.02;;;10.82;;
42146;SDS011;27815;43.410;11.852;2023-06-19T06:21:42;11.38;;;10.32;;
42146;SDS011;27815;43.410;11.852;2023-06-19T06:25:44;10.43;;;9.43;;
42146;SDS011;27815;43.410;11.852;2023-06-19T06:29:47;10.57;;;9.63;;
42146;SDS011;27815;43.410;11.852;2023-06-19T06:33:50;13.27;;;10.75;;
42146;SDS011;27815;43.410;11.852;2023-06-19T06:37:53;12.90;;;11.60;;
42146;SDS011;27815;43.410;11.852;2023-06-19T06:41:56;10.93;;;9.93;;
42146;SDS011;27815;43.410;11.852;2023-06-19T06:45:59;10.93;;;9.85;;
42146;SDS011;27815;43.410;11.852;2023-06-19T06:50:02;11.00;;;10.05;;
42146;SDS011;27815;43.410;11.852;2023-06-19T06:54:06;11.30;;;10.18;;
42146;SDS011;27815;43.410;11.852;2023-06-19T06:58:08;11.13;;;10.02;;
42146;SDS011;27815;43.410;11.852;2023-06-19T07:02:11;10.13;;;9.15;;
42146;SDS011;27815;43.410;11.852;2023-06-19T07:06:15;11.05;;;9.98;;
42146;SDS011;27815;43.410;11.852;2023-06-19T07:10:17;11.38;;;10.48;;
42146;SDS011;27815;43.410;11.852;2023-06-19T07:14:20;11.15;;;10.18;;
42146;SDS011;27815;43.410;11.852;2023-06-19T07:18:24;13.00;;;10.52;;
42146;SDS011;27815;43.410;11.852;2023-06-19T07:22:26;11.40;;;10.35;;
42146;SDS011;27815;43.410;11.852;2023-06-19T07:26:29;11.82;;;10.63;;
42146;SDS011;27815;43.410;11.852;2023-06-19T07:30:32;11.75;;;10.57;;
42146;SDS011;27815;43.410;11.852;2023-06-19T07:34:35;12.00;;;10.80;;
42146;SDS011;27815;43.410;11.852;2023-06-19T07:38:38;12.07;;;10.88;;
42146;SDS011;27815;43.410;11.852;2023-06-19T07:42:43;12.07;;;10.75;;
42146;SDS011;27815;43.410;11.852;2023-06-19T07:46:46;12.48;;;11.18;;
42146;SDS011;27815;43.410;11.852;2023-06-19T07:50:49;12.02;;;10.82;;
42146;SDS011;27815;43.410;11.852;2023-06-19T07:54:57;14.98;;;13.38;;
42146;SDS011;27815;43.410;11.852;2023-06-19T07:59:00;18.45;;;16.50;;
42146;SDS011;27815;43.410;11.852;2023-06-19T08:03:07;13.32;;;11.93;;
42146;SDS011;27815;43.410;11.852;2023-06-19T08:07:10;12.55;;;11.35;;
42146;SDS011;27815;43.410;11.852;2023-06-19T08:11:13;13.15;;;11.93;;
42146;SDS011;27815;43.410;11.852;2023-06-19T08:15:17;13.10;;;11.52;;
42146;SDS011;27815;43.410;11.852;2023-06-19T08:19:20;14.43;;;13.10;;
42146;SDS011;27815;43.410;11.852;2023-06-19T08:23:23;20.60;;;16.25;;
42146;SDS011;27815;43.410;11.852;2023-06-19T08:27:27;13.32;;;11.98;;
42146;SDS011;27815;43.410;11.852;2023-06-19T08:31:30;12.43;;;11.32;;
42146;SDS011;27815;43.410;11.852;2023-06-19T08:35:32;13.35;;;11.15;;
42146;SDS011;27815;43.410;11.852;2023-06-19T08:39:35;23.95;;;16.20;;
42146;SDS011;27815;43.410;11.852;2023-06-19T08:43:41;17.70;;;13.80;;
42146;SDS011;27815;43.410;11.852;2023-06-19T08:47:44;12.65;;;11.35;;
42146;SDS011;27815;43.410;11.852;2023-06-19T08:51:48;11.88;;;10.75;;
42146;SDS011;27815;43.410;11.852;2023-06-19T08:55:51;12.65;;;10.30;;
42146;SDS011;27815;43.410;11.852;2023-06-19T08:59:55;11.95;;;10.70;;
42146;SDS011;27815;43.410;11.852;2023-06-19T09:03:58;11.45;;;10.32;;
42146;SDS011;27815;43.410;11.852;2023-06-19T09:08:02;12.10;;;10.23;;
42146;SDS011;27815;43.410;11.852;2023-06-19T09:12:11;10.00;;;9.00;;
42146;SDS011;27815;43.410;11.852;2023-06-19T09:16:17;9.30;;;8.40;;
42146;SDS011;27815;43.410;11.852;2023-06-19T09:20:25;9.65;;;8.65;;
42146;SDS011;27815;43.410;11.852;2023-06-19T09:24:49;8.93;;;6.65;;
42146;SDS011;27815;43.410;11.852;2023-06-19T09:28:53;7.13;;;6.40;;
42146;SDS011;27815;43.410;11.852;2023-06-19T09:33:05;8.25;;;5.80;;
42146;SDS011;27815;43.410;11.852;2023-06-19T09:37:09;9.13;;;6.45;;
42146;SDS011;27815;43.410;11.852;2023-06-19T09:41:12;9.00;;;6.20;;
42146;SDS011;27815;43.410;11.852;2023-06-19T09:45:17;8.18;;;5.80;;
42146;SDS011;27815;43.410;11.852;2023-06-19T09:49:24;7.57;;;5.15;;
42146;SDS011;27815;43.410;11.852;2023-06-19T09:53:30;6.65;;;4.35;;
42146;SDS011;27815;43.410;11.852;2023-06-19T09:57:34;5.53;;;3.67;;
42146;SDS011;27815;43.410;11.852;2023-06-19T10:01:39;6.07;;;4.00;;
42146;SDS011;27815;43.410;11.852;2023-06-19T10:05:44;4.93;;;3.40;;
42146;SDS011;27815;43.410;11.852;2023-06-19T10:09:55;6.05;;;3.88;;
42146;SDS011;27815;43.410;11.852;2023-06-19T10:14:05;5.78;;;4.03;;
42146;SDS011;27815;43.410;11.852;2023-06-19T10:18:14;5.93;;;3.70;;
42146;SDS011;27815;43.410;11.852;2023-06-19T10:22:20;6.47;;;4.13;;
42146;SDS011;27815;43.410;11.852;2023-06-19T10:26:33;7.63;;;3.67;;
42146;SDS011;27815;43.410;11.852;2023-06-19T10:30:37;8.15;;;4.10;;
42146;SDS011;27815;43.410;11.852;2023-06-19T10:34:40;6.57;;;4.13;;
42146;SDS011;27815;43.410;11.852;2023-06-19T10:38:49;7.18;;;4.50;;
42146;SDS011;27815;43.410;11.852;2023-06-19T10:42:52;7.07;;;4.15;;
42146;SDS011;27815;43.410;11.852;2023-06-19T10:46:55;7.32;;;4.32;;
42146;SDS011;27815;43.410;11.852;2023-06-19T10:51:24;6.20;;;4.18;;
42146;SDS011;27815;43.410;11.852;2023-06-19T10:55:27;11.27;;;4.47;;
42146;SDS011;27815;43.410;11.852;2023-06-19T10:59:30;7.13;;;4.05;;
42146;SDS011;27815;43.410;11.852;2023-06-19T11:03:35;8.23;;;4.47;;
42146;SDS011;27815;43.410;11.852;2023-06-19T11:07:38;6.35;;;4.03;;
42146;SDS011;27815;43.410;11.852;2023-06-19T11:15:49;5.95;;;4.38;;
42146;SDS011;27815;43.410;11.852;2023-06-19T11:19:53;7.90;;;3.97;;
42146;SDS011;27815;43.410;11.852;2023-06-19T11:23:59;4.95;;;3.42;;
42146;SDS011;27815;43.410;11.852;2023-06-19T11:28:13;7.68;;;4.00;;
42146;SDS011;27815;43.410;11.852;2023-06-19T11:32:16;5.72;;;3.60;;
42146;SDS011;27815;43.410;11.852;2023-06-19T11:36:27;5.95;;;3.80;;
42146;SDS011;27815;43.410;11.852;2023-06-19T11:40:41;5.85;;;3.17;;
42146;SDS011;27815;43.410;11.852;2023-06-19T11:44:52;5.38;;;3.00;;
42146;SDS011;27815;43.410;11.852;2023-06-19T11:49:17;5.35;;;2.83;;
42146;SDS011;27815;43.410;11.852;2023-06-19T11:53:23;4.85;;;3.03;;
42146;SDS011;27815;43.410;11.852;2023-06-19T11:57:27;5.00;;;2.28;;
42146;SDS011;27815;43.410;11.852;2023-06-19T12:01:33;4.20;;;2.28;;
42146;SDS011;27815;43.410;11.852;2023-06-19T12:05:38;5.88;;;2.78;;
42146;SDS011;27815;43.410;11.852;2023-06-19T12:09:41;5.65;;;2.80;;
42146;SDS011;27815;43.410;11.852;2023-06-19T12:13:45;5.28;;;2.95;;
42146;SDS011;27815;43.410;11.852;2023-06-19T12:17:48;5.78;;;3.47;;
42146;SDS011;27815;43.410;11.852;2023-06-19T12:21:51;4.80;;;3.10;;
42146;SDS011;27815;43.410;11.852;2023-06-19T12:25:54;7.85;;;3.22;;
42146;SDS011;27815;43.410;11.852;2023-06-19T12:29:57;5.28;;;2.60;;
42146;SDS011;27815;43.410;11.852;2023-06-19T12:34:01;5.70;;;2.92;;
42146;SDS011;27815;43.410;11.852;2023-06-19T12:38:22;6.13;;;2.70;;
42146;SDS011;27815;43.410;11.852;2023-06-19T12:42:25;6.22;;;2.90;;
42146;SDS011;27815;43.410;11.852;2023-06-19T12:46:28;6.00;;;2.65;;
42146;SDS011;27815;43.410;11.852;2023-06-19T12:50:31;5.15;;;2.88;;
42146;SDS011;27815;43.410;11.852;2023-06-19T12:54:34;6.25;;;3.00;;
42146;SDS011;27815;43.410;11.852;2023-06-19T12:58:38;4.95;;;2.28;;
42146;SDS011;27815;43.410;11.852;2023-06-19T13:02:41;5.80;;;3.00;;
42146;SDS011;27815;43.410;11.852;2023-06-19T13:06:46;5.37;;;2.53;;
42146;SDS011;27815;43.410;11.852;2023-06-19T13:10:49;6.03;;;2.78;;
42146;SDS011;27815;43.410;11.852;2023-06-19T13:14:52;5.47;;;2.97;;
42146;SDS011;27815;43.410;11.852;2023-06-19T13:18:55;5.07;;;2.78;;
42146;SDS011;27815;43.410;11.852;2023-06-19T13:22:59;5.15;;;2.70;;
42146;SDS011;27815;43.410;11.852;2023-06-19T13:31:08;6.10;;;2.97;;
42146;SDS011;27815;43.410;11.852;2023-06-19T13:35:11;4.25;;;2.88;;
42146;SDS011;27815;43.410;11.852;2023-06-19T13:39:14;4.57;;;2.65;;
42146;SDS011;27815;43.410;11.852;2023-06-19T13:43:17;6.60;;;3.05;;
42146;SDS011;27815;43.410;11.852;2023-06-19T13:47:22;4.80;;;3.03;;
42146;SDS011;27815;43.410;11.852;2023-06-19T13:51:27;5.55;;;3.22;;
42146;SDS011;27815;43.410;11.852;2023-06-19T13:55:31;5.43;;;3.13;;
42146;SDS011;27815;43.410;11.852;2023-06-19T13:59:33;4.70;;;2.75;;
42146;SDS011;27815;43.410;11.852;2023-06-19T14:03:39;4.90;;;2.80;;
42146;SDS011;27815;43.410;11.852;2023-06-19T14:07:43;7.32;;;3.10;;
42146;SDS011;27815;43.410;11.852;2023-06-19T14:11:46;5.10;;;3.30;;
42146;SDS011;27815;43.410;11.852;2023-06-19T14:15:49;5.40;;;3.40;;
42146;SDS011;27815;43.410;11.852;2023-06-19T14:19:52;4.93;;;2.88;;
42146;SDS011;27815;43.410;11.852;2023-06-19T14:23:55;5.00;;;2.95;;
42146;SDS011;27815;43.410;11.852;2023-06-19T14:27:58;5.65;;;3.22;;
42146;SDS011;27815;43.410;11.852;2023-06-19T14:32:01;6.05;;;3.63;;
42146;SDS011;27815;43.410;11.852;2023-06-19T14:36:04;6.07;;;3.25;;
42146;SDS011;27815;43.410;11.852;2023-06-19T14:40:08;6.05;;;3.10;;
42146;SDS011;27815;43.410;11.852;2023-06-19T14:44:11;4.68;;;3.00;;
42146;SDS011;27815;43.410;11.852;2023-06-19T14:48:14;5.85;;;3.00;;
42146;SDS011;27815;43.410;11.852;2023-06-19T14:52:18;5.60;;;3.00;;
42146;SDS011;27815;43.410;11.852;2023-06-19T14:56:22;6.10;;;2.65;;
42146;SDS011;27815;43.410;11.852;2023-06-19T15:00:25;4.13;;;2.60;;
42146;SDS011;27815;43.410;11.852;2023-06-19T15:04:28;4.40;;;2.70;;
42146;SDS011;27815;43.410;11.852;2023-06-19T15:08:31;5.10;;;2.72;;
42146;SDS011;27815;43.410;11.852;2023-06-19T15:12:34;5.85;;;2.72;;
42146;SDS011;27815;43.410;11.852;2023-06-19T15:16:37;5.25;;;3.10;;
42146;SDS011;27815;43.410;11.852;2023-06-19T15:20:40;4.78;;;3.03;;
42146;SDS011;27815;43.410;11.852;2023-06-19T15:24:43;5.25;;;3.05;;
42146;SDS011;27815;43.410;11.852;2023-06-19T15:28:46;7.40;;;2.83;;
42146;SDS011;27815;43.410;11.852;2023-06-19T15:32:49;8.40;;;2.80;;
42146;SDS011;27815;43.410;11.852;2023-06-19T15:36:52;5.55;;;3.17;;
42146;SDS011;27815;43.410;11.852;2023-06-19T15:40:55;4.40;;;2.85;;
42146;SDS011;27815;43.410;11.852;2023-06-19T15:44:59;4.70;;;2.88;;
42146;SDS011;27815;43.410;11.852;2023-06-19T15:49:01;4.82;;;2.92;;
42146;SDS011;27815;43.410;11.852;2023-06-19T15:53:05;5.32;;;2.83;;
42146;SDS011;27815;43.410;11.852;2023-06-19T15:57:08;4.82;;;2.90;;
42146;SDS011;27815;43.410;11.852;2023-06-19T16:01:11;5.47;;;2.72;;
42146;SDS011;27815;43.410;11.852;2023-06-19T16:05:14;6.93;;;2.88;;
42146;SDS011;27815;43.410;11.852;2023-06-19T16:09:30;5.47;;;3.35;;
42146;SDS011;27815;43.410;11.852;2023-06-19T16:13:47;4.63;;;2.88;;
42146;SDS011;27815;43.410;11.852;2023-06-19T16:17:50;3.55;;;2.50;;
42146;SDS011;27815;43.410;11.852;2023-06-19T16:21:56;4.78;;;2.83;;
42146;SDS011;27815;43.410;11.852;2023-06-19T16:25:59;4.30;;;2.80;;
42146;SDS011;27815;43.410;11.852;2023-06-19T16:30:02;5.28;;;2.90;;
42146;SDS011;27815;43.410;11.852;2023-06-19T16:34:06;3.60;;;2.30;;
42146;SDS011;27815;43.410;11.852;2023-06-19T16:38:09;3.88;;;2.70;;
42146;SDS011;27815;43.410;11.852;2023-06-19T16:42:12;6.45;;;2.65;;
42146;SDS011;27815;43.410;11.852;2023-06-19T16:46:17;4.03;;;2.72;;
42146;SDS011;27815;43.410;11.852;2023-06-19T16:50:21;3.75;;;2.50;;
42146;SDS011;27815;43.410;11.852;2023-06-19T16:58:29;4.60;;;2.78;;
42146;SDS011;27815;43.410;11.852;2023-06-19T17:02:31;4.90;;;3.05;;
42146;SDS011;27815;43.410;11.852;2023-06-19T17:06:35;4.32;;;2.67;;
42146;SDS011;27815;43.410;11.852;2023-06-19T17:10:39;5.68;;;2.95;;
42146;SDS011;27815;43.410;11.852;2023-06-19T17:14:42;4.90;;;2.97;;
42146;SDS011;27815;43.410;11.852;2023-06-19T17:18:44;5.85;;;3.20;;
42146;SDS011;27815;43.410;11.852;2023-06-19T17:22:47;5.03;;;2.80;;
42146;SDS011;27815;43.410;11.852;2023-06-19T17:26:50;5.75;;;2.75;;
42146;SDS011;27815;43.410;11.852;2023-06-19T17:30:59;4.40;;;2.60;;
42146;SDS011;27815;43.410;11.852;2023-06-19T17:35:02;5.25;;;2.53;;
42146;SDS011;27815;43.410;11.852;2023-06-19T17:39:06;7.27;;;2.93;;
42146;SDS011;27815;43.410;11.852;2023-06-19T17:43:09;5.40;;;3.15;;
42146;SDS011;27815;43.410;11.852;2023-06-19T17:47:12;6.05;;;2.58;;
42146;SDS011;27815;43.410;11.852;2023-06-19T17:51:15;4.60;;;2.40;;
42146;SDS011;27815;43.410;11.852;2023-06-19T17:55:18;4.55;;;2.90;;
42146;SDS011;27815;43.410;11.852;2023-06-19T17:59:21;4.45;;;2.50;;
42146;SDS011;27815;43.410;11.852;2023-06-19T18:03:24;4.93;;;2.83;;
42146;SDS011;27815;43.410;11.852;2023-06-19T18:07:27;4.03;;;2.50;;
42146;SDS011;27815;43.410;11.852;2023-06-19T18:11:30;4.97;;;2.65;;
42146;SDS011;27815;43.410;11.852;2023-06-19T18:15:33;4.35;;;2.90;;
42146;SDS011;27815;43.410;11.852;2023-06-19T18:19:36;5.55;;;2.65;;
42146;SDS011;27815;43.410;11.852;2023-06-19T18:23:39;4.47;;;2.50;;
42146;SDS011;27815;43.410;11.852;2023-06-19T18:27:42;4.28;;;2.63;;
42146;SDS011;27815;43.410;11.852;2023-06-19T18:31:45;4.80;;;2.85;;
42146;SDS011;27815;43.410;11.852;2023-06-19T18:35:48;5.38;;;2.78;;
42146;SDS011;27815;43.410;11.852;2023-06-19T18:39:51;4.80;;;2.90;;
42146;SDS011;27815;43.410;11.852;2023-06-19T18:43:56;4.30;;;2.65;;
42146;SDS011;27815;43.410;11.852;2023-06-19T18:47:59;4.57;;;2.63;;
42146;SDS011;27815;43.410;11.852;2023-06-19T18:52:02;5.65;;;2.88;;
42146;SDS011;27815;43.410;11.852;2023-06-19T18:56:05;5.47;;;2.72;;
42146;SDS011;27815;43.410;11.852;2023-06-19T19:00:08;4.88;;;2.78;;
42146;SDS011;27815;43.410;11.852;2023-06-19T19:04:12;6.03;;;2.50;;
42146;SDS011;27815;43.410;11.852;2023-06-19T19:08:15;6.22;;;2.80;;
42146;SDS011;27815;43.410;11.852;2023-06-19T19:12:18;5.60;;;2.67;;
42146;SDS011;27815;43.410;11.852;2023-06-19T19:16:21;6.15;;;2.90;;
42146;SDS011;27815;43.410;11.852;2023-06-19T19:20:24;4.75;;;2.92;;
42146;SDS011;27815;43.410;11.852;2023-06-19T19:24:29;5.07;;;2.50;;
42146;SDS011;27815;43.410;11.852;2023-06-19T19:28:32;4.10;;;2.38;;
42146;SDS011;27815;43.410;11.852;2023-06-19T19:32:35;5.22;;;2.53;;
42146;SDS011;27815;43.410;11.852;2023-06-19T19:36:38;5.55;;;2.70;;
42146;SDS011;27815;43.410;11.852;2023-06-19T19:40:41;5.47;;;2.50;;
42146;SDS011;27815;43.410;11.852;2023-06-19T19:44:44;4.22;;;2.45;;
42146;SDS011;27815;43.410;11.852;2023-06-19T19:48:46;3.92;;;2.30;;
42146;SDS011;27815;43.410;11.852;2023-06-19T19:52:49;4.93;;;2.97;;
42146;SDS011;27815;43.410;11.852;2023-06-19T19:56:52;4.50;;;2.53;;
42146;SDS011;27815;43.410;11.852;2023-06-19T20:00:55;5.13;;;2.70;;
42146;SDS011;27815;43.410;11.852;2023-06-19T20:04:58;4.75;;;2.75;;
42146;SDS011;27815;43.410;11.852;2023-06-19T20:09:01;5.03;;;2.60;;
42146;SDS011;27815;43.410;11.852;2023-06-19T20:13:04;4.35;;;2.42;;
42146;SDS011;27815;43.410;11.852;2023-06-19T20:17:07;4.88;;;2.30;;
42146;SDS011;27815;43.410;11.852;2023-06-19T20:21:12;5.03;;;2.67;;
42146;SDS011;27815;43.410;11.852;2023-06-19T20:25:16;5.82;;;2.67;;
42146;SDS011;27815;43.410;11.852;2023-06-19T20:29:19;4.32;;;2.30;;
42146;SDS011;27815;43.410;11.852;2023-06-19T20:33:22;7.05;;;2.75;;
42146;SDS011;27815;43.410;11.852;2023-06-19T20:37:25;5.70;;;2.83;;
42146;SDS011;27815;43.410;11.852;2023-06-19T20:41:28;4.30;;;2.50;;
42146;SDS011;27815;43.410;11.852;2023-06-19T20:45:31;4.68;;;2.50;;
42146;SDS011;27815;43.410;11.852;2023-06-19T20:49:34;7.80;;;3.08;;
42146;SDS011;27815;43.410;11.852;2023-06-19T20:53:37;4.95;;;2.72;;
42146;SDS011;27815;43.410;11.852;2023-06-19T20:57:40;5.53;;;2.83;;
42146;SDS011;27815;43.410;11.852;2023-06-19T21:01:43;4.72;;;2.60;;
42146;SDS011;27815;43.410;11.852;2023-06-19T21:05:48;5.60;;;2.90;;
42146;SDS011;27815;43.410;11.852;2023-06-19T21:09:51;9.35;;;3.08;;
42146;SDS011;27815;43.410;11.852;2023-06-19T21:13:54;4.20;;;2.40;;
42146;SDS011;27815;43.410;11.852;2023-06-19T21:17:57;8.00;;;3.20;;
42146;SDS011;27815;43.410;11.852;2023-06-19T21:22:00;5.40;;;2.50;;
42146;SDS011;27815;43.410;11.852;2023-06-19T21:26:03;5.03;;;2.80;;
42146;SDS011;27815;43.410;11.852;2023-06-19T21:30:06;4.63;;;2.60;;
42146;SDS011;27815;43.410;11.852;2023-06-19T21:34:09;3.78;;;2.20;;
42146;SDS011;27815;43.410;11.852;2023-06-19T21:38:12;4.72;;;2.58;;
42146;SDS011;27815;43.410;11.852;2023-06-19T21:42:15;4.75;;;2.33;;
42146;SDS011;27815;43.410;11.852;2023-06-19T21:46:18;4.88;;;2.72;;
42146;SDS011;27815;43.410;11.852;2023-06-19T21:50:22;3.78;;;2.35;;
42146;SDS011;27815;43.410;11.852;2023-06-19T21:54:26;4.35;;;2.53;;
42146;SDS011;27815;43.410;11.852;2023-06-19T21:58:29;5.35;;;3.05;;
42146;SDS011;27815;43.410;11.852;2023-06-19T22:02:32;4.43;;;2.53;;
42146;SDS011;27815;43.410;11.852;2023-06-19T22:06:35;4.25;;;2.25;;
42146;SDS011;27815;43.410;11.852;2023-06-19T22:10:38;4.88;;;2.70;;
42146;SDS011;27815;43.410;11.852;2023-06-19T22:14:41;4.78;;;2.80;;
42146;SDS011;27815;43.410;11.852;2023-06-19T22:18:46;5.15;;;2.92;;
42146;SDS011;27815;43.410;11.852;2023-06-19T22:22:49;4.68;;;2.50;;
42146;SDS011;27815;43.410;11.852;2023-06-19T22:26:52;4.72;;;2.60;;
42146;SDS011;27815;43.410;11.852;2023-06-19T22:30:55;4.93;;;2.70;;
42146;SDS011;27815;43.410;11.852;2023-06-19T22:34:57;6.32;;;2.72;;
42146;SDS011;27815;43.410;11.852;2023-06-19T22:39:01;5.55;;;2.78;;
42146;SDS011;27815;43.410;11.852;2023-06-19T22:43:04;6.20;;;3.00;;
42146;SDS011;27815;43.410;11.852;2023-06-19T22:47:07;4.88;;;2.58;;
42146;SDS011;27815;43.410;11.852;2023-06-19T22:51:10;5.35;;;2.88;;
42146;SDS011;27815;43.410;11.852;2023-06-19T22:55:13;5.55;;;3.10;;
42146;SDS011;27815;43.410;11.852;2023-06-19T22:59:16;5.43;;;3.33;;
42146;SDS011;27815;43.410;11.852;2023-06-19T23:03:19;5.00;;;2.95;;
42146;SDS011;27815;43.410;11.852;2023-06-19T23:07:24;5.82;;;2.83;;
42146;SDS011;27815;43.410;11.852;2023-06-19T23:11:26;6.05;;;2.85;;
42146;SDS011;27815;43.410;11.852;2023-06-19T23:15:31;5.20;;;3.38;;
42146;SDS011;27815;43.410;11.852;2023-06-19T23:19:38;5.30;;;2.88;;
42146;SDS011;27815;43.410;11.852;2023-06-19T23:23:44;4.80;;;3.05;;
42146;SDS011;27815;43.410;11.852;2023-06-19T23:27:49;7.22;;;3.03;;
42146;SDS011;27815;43.410;11.852;2023-06-19T23:31:52;4.40;;;2.88;;
42146;SDS011;27815;43.410;11.852;2023-06-19T23:35:54;6.38;;;3.38;;
42146;SDS011;27815;43.410;11.852;2023-06-19T23:39:58;4.93;;;3.10;;
42146;SDS011;27815;43.410;11.852;2023-06-19T23:44:01;5.68;;;3.50;;
42146;SDS011;27815;43.410;11.852;2023-06-19T23:48:04;4.85;;;3.10;;
42146;SDS011;27815;43.410;11.852;2023-06-19T23:52:08;5.25;;;3.35;;
42146;SDS011;27815;43.410;11.852;2023-06-19T23:56:11;5.22;;;3.25;;
